createdAt,value
2023-01-09T00:01:30.545Z,21.10
2023-01-09T00:04:00.898Z,21.30
2023-01-09T00:06:29.398Z,21.10
2023-01-09T00:08:58.108Z,21.10
2023-01-09T00:11:26.162Z,21.30
2023-01-09T00:13:54.315Z,20.80
2023-01-09T00:16:22.571Z,21.10
2023-01-09T00:18:53.254Z,21.10
2023-01-09T00:21:21.623Z,21.40
2023-01-09T00:23:49.522Z,21.40
2023-01-09T00:26:19.770Z,21.30
2023-01-09T00:28:49.229Z,21.00
2023-01-09T00:31:18.466Z,21.30
2023-01-09T00:33:53.752Z,20.70
2023-01-09T00:36:21.862Z,20.80
2023-01-09T00:38:50.310Z,21.00
2023-01-09T00:41:21.772Z,21.10
2023-01-09T00:43:54.258Z,21.10
2023-01-09T00:46:26.046Z,21.00
2023-01-09T00:48:55.394Z,21.10
2023-01-09T00:51:24.184Z,20.20
2023-01-09T00:53:53.138Z,20.10
2023-01-09T00:56:21.879Z,20.60
2023-01-09T00:58:50.600Z,20.80
2023-01-09T01:01:18.609Z,20.80
2023-01-09T01:03:46.746Z,20.70
2023-01-09T01:06:33.589Z,20.90
2023-01-09T01:09:01.827Z,20.90
2023-01-09T01:11:29.788Z,20.10
2023-01-09T01:13:57.858Z,19.60
2023-01-09T01:16:26.270Z,19.50
2023-01-09T01:18:54.209Z,19.90
2023-01-09T01:21:23.463Z,20.10
2023-01-09T01:23:51.447Z,19.80
2023-01-09T01:26:19.391Z,19.50
2023-01-09T01:28:47.387Z,18.80
2023-01-09T01:31:19.693Z,19.30
2023-01-09T01:33:47.919Z,19.70
2023-01-09T01:36:17.502Z,19.60
2023-01-09T01:38:47.813Z,19.50
2023-01-09T01:41:29.157Z,19.70
2023-01-09T01:43:59.011Z,18.90
2023-01-09T01:46:27.286Z,18.90
2023-01-09T01:49:00.317Z,19.30
2023-01-09T01:51:31.743Z,19.50
2023-01-09T01:54:06.603Z,19.40
2023-01-09T01:56:39.679Z,18.80
2023-01-09T01:59:11.006Z,19.10
2023-01-09T02:01:41.897Z,19.50
2023-01-09T02:04:10.922Z,19.30
2023-01-09T02:06:39.819Z,18.70
2023-01-09T02:09:10.213Z,18.40
2023-01-09T02:11:38.128Z,18.80
2023-01-09T02:14:06.125Z,19.10
2023-01-09T02:16:47.670Z,18.90
2023-01-09T02:19:38.233Z,18.90
2023-01-09T02:22:15.158Z,18.80
2023-01-09T02:25:04.700Z,18.60
2023-01-09T02:28:02.087Z,19.00
2023-01-09T02:30:41.586Z,19.20
2023-01-09T02:33:40.376Z,19.30
2023-01-09T02:36:24.697Z,19.30
2023-01-09T02:39:06.427Z,19.50
2023-01-09T02:41:39.348Z,18.70
2023-01-09T02:44:18.113Z,18.80
2023-01-09T02:46:47.456Z,19.00
2023-01-09T02:49:17.703Z,18.90
2023-01-09T02:51:52.936Z,18.70
2023-01-09T02:54:34.951Z,17.90
2023-01-09T02:57:20.604Z,18.60
2023-01-09T03:00:03.927Z,19.00
2023-01-09T03:02:45.405Z,18.60
2023-01-09T03:05:20.071Z,19.00
2023-01-09T03:07:55.683Z,19.20
2023-01-09T03:10:29.590Z,19.20
2023-01-09T03:12:59.191Z,19.20
2023-01-09T03:15:29.976Z,18.20
2023-01-09T03:18:02.096Z,18.50
2023-01-09T03:20:32.201Z,18.00
2023-01-09T03:23:01.786Z,18.20
2023-01-09T03:25:32.965Z,18.30
2023-01-09T03:28:02.638Z,18.60
2023-01-09T03:30:32.351Z,18.30
2023-01-09T03:33:01.716Z,17.90
2023-01-09T03:35:29.852Z,17.10
2023-01-09T03:37:58.971Z,17.70
2023-01-09T03:40:26.965Z,17.90
2023-01-09T03:42:54.866Z,17.80
2023-01-09T03:45:22.801Z,17.60
2023-01-09T03:47:52.979Z,17.30
2023-01-09T03:50:22.388Z,17.50
2023-01-09T03:52:50.353Z,17.60
2023-01-09T03:55:24.458Z,18.20
2023-01-09T03:57:53.052Z,18.60
2023-01-09T04:00:21.650Z,19.00
2023-01-09T04:02:50.348Z,19.30
2023-01-09T04:05:18.364Z,19.40
2023-01-09T04:07:47.643Z,19.50
2023-01-09T04:10:15.589Z,19.70
2023-01-09T04:12:43.515Z,19.40
2023-01-09T04:15:12.939Z,18.10
2023-01-09T04:17:40.863Z,17.20
2023-01-09T04:20:10.252Z,17.50
2023-01-09T04:22:38.411Z,16.70
2023-01-09T04:25:08.616Z,17.40
2023-01-09T04:27:38.758Z,18.10
2023-01-09T04:30:07.953Z,18.50
2023-01-09T04:32:35.869Z,18.50
2023-01-09T04:35:03.817Z,18.60
2023-01-09T04:37:31.738Z,18.90
2023-01-09T04:39:59.661Z,18.80
2023-01-09T04:42:28.896Z,19.00
2023-01-09T04:44:56.788Z,19.20
2023-01-09T04:47:24.726Z,19.10
2023-01-09T04:49:52.935Z,19.40
2023-01-09T04:52:20.922Z,19.50
2023-01-09T04:54:48.851Z,18.80
2023-01-09T04:57:16.774Z,19.00
2023-01-09T04:59:46.165Z,17.80
2023-01-09T05:02:14.368Z,18.00
2023-01-09T05:04:42.389Z,18.20
2023-01-09T05:07:10.668Z,18.60
2023-01-09T05:09:38.563Z,19.10
2023-01-09T05:12:07.154Z,19.30
2023-01-09T05:14:35.106Z,18.60
2023-01-09T05:17:04.365Z,18.30
2023-01-09T05:19:32.288Z,18.80
2023-01-09T05:22:00.190Z,19.10
2023-01-09T05:24:28.095Z,19.10
2023-01-09T05:26:56.006Z,19.40
2023-01-09T05:29:23.985Z,18.90
2023-01-09T05:31:52.776Z,19.30
2023-01-09T05:34:22.942Z,19.60
2023-01-09T05:36:51.021Z,19.10
2023-01-09T05:39:19.043Z,19.70
2023-01-09T05:41:47.016Z,19.70
2023-01-09T05:44:14.955Z,19.80
2023-01-09T05:46:42.888Z,19.90
2023-01-09T05:49:10.958Z,19.70
2023-01-09T05:51:40.203Z,18.30
2023-01-09T05:54:08.366Z,18.00
2023-01-09T05:56:36.331Z,18.60
2023-01-09T05:59:04.246Z,18.90
2023-01-09T06:01:32.247Z,19.10
2023-01-09T06:04:00.191Z,19.30
2023-01-09T06:06:28.205Z,19.30
2023-01-09T06:08:57.498Z,19.70
2023-01-09T06:11:25.444Z,19.60
2023-01-09T06:13:53.361Z,19.70
2023-01-09T06:16:21.436Z,19.90
2023-01-09T06:18:50.382Z,19.90
2023-01-09T06:21:18.299Z,20.20
2023-01-09T06:23:46.309Z,20.40
2023-01-09T06:26:15.727Z,20.40
2023-01-09T06:28:44.762Z,20.50
2023-01-09T06:31:13.267Z,20.40
2023-01-09T06:33:41.307Z,20.50
2023-01-09T06:36:09.937Z,20.20
2023-01-09T06:38:38.028Z,20.40
2023-01-09T06:41:06.404Z,20.70
2023-01-09T06:43:35.694Z,20.80
2023-01-09T06:46:05.477Z,20.80
2023-01-09T06:48:33.494Z,20.10
2023-01-09T06:51:01.727Z,20.40
2023-01-09T06:53:29.835Z,20.40
2023-01-09T06:55:57.757Z,20.40
2023-01-09T06:58:25.686Z,20.70
2023-01-09T07:00:55.704Z,20.50
2023-01-09T07:03:23.901Z,20.20
2023-01-09T07:05:52.267Z,20.40
2023-01-09T07:08:20.291Z,20.50
2023-01-09T07:10:48.189Z,20.70
2023-01-09T07:13:16.089Z,20.30
2023-01-09T07:15:44.100Z,20.40
2023-01-09T07:18:13.387Z,20.20
2023-01-09T07:20:41.573Z,20.40
2023-01-09T07:23:11.934Z,20.10
2023-01-09T07:25:40.048Z,20.50
2023-01-09T07:28:08.183Z,20.60
2023-01-09T07:30:36.150Z,20.40
2023-01-09T07:33:04.275Z,20.10
2023-01-09T07:35:33.745Z,20.10
2023-01-09T07:38:01.713Z,19.70
2023-01-09T07:40:29.670Z,20.30
2023-01-09T07:42:57.636Z,20.80
2023-01-09T07:45:25.568Z,20.80
2023-01-09T07:47:53.664Z,20.50
2023-01-09T07:50:23.674Z,19.60
2023-01-09T07:52:54.088Z,20.10
2023-01-09T07:55:21.990Z,20.50
2023-01-09T07:57:50.869Z,20.80
2023-01-09T08:00:21.015Z,21.10
2023-01-09T08:02:53.733Z,21.20
2023-01-09T08:05:22.228Z,21.30
2023-01-09T08:07:51.239Z,21.20
2023-01-09T08:10:21.014Z,21.00
2023-01-09T08:12:49.888Z,21.00
2023-01-09T08:15:18.167Z,20.90
2023-01-09T08:17:47.613Z,20.90
2023-01-09T08:20:17.171Z,21.30
2023-01-09T08:22:49.492Z,21.10
2023-01-09T08:25:18.281Z,21.20
2023-01-09T08:27:47.775Z,21.30
2023-01-09T08:30:16.956Z,21.30
2023-01-09T08:32:47.638Z,21.40
2023-01-09T08:35:15.697Z,21.20
2023-01-09T08:37:45.023Z,21.30
2023-01-09T08:40:14.012Z,20.90
2023-01-09T08:42:55.948Z,20.90
2023-01-09T08:45:43.041Z,21.10
2023-01-09T08:48:11.566Z,21.40
2023-01-09T08:50:39.598Z,21.00
2023-01-09T08:53:07.508Z,21.50
2023-01-09T08:55:35.462Z,21.50
2023-01-09T08:58:03.706Z,21.60
2023-01-09T09:00:33.016Z,21.90
2023-01-09T09:03:02.273Z,22.00
2023-01-09T09:05:31.712Z,22.00
2023-01-09T09:08:00.171Z,22.20
2023-01-09T09:10:29.711Z,22.30
2023-01-09T09:12:59.475Z,22.00
2023-01-09T09:15:28.868Z,22.10
2023-01-09T09:18:00.522Z,21.70
2023-01-09T09:20:30.842Z,21.60
2023-01-09T09:22:58.783Z,22.20
2023-01-09T09:25:26.853Z,22.40
2023-01-09T09:27:55.873Z,22.60
2023-01-09T09:30:25.300Z,22.80
2023-01-09T09:32:53.315Z,22.90
2023-01-09T09:35:23.241Z,23.00
2023-01-09T09:37:55.319Z,23.10
2023-01-09T09:41:04.031Z,23.20
2023-01-09T09:44:05.550Z,23.10
2023-01-09T09:46:41.308Z,22.60
2023-01-09T09:49:15.954Z,22.70
2023-01-09T09:52:06.736Z,22.90
2023-01-09T09:54:40.879Z,23.10
2023-01-09T09:57:15.637Z,22.90
2023-01-09T09:59:45.445Z,23.00
2023-01-09T10:02:26.771Z,23.10
2023-01-09T10:05:01.200Z,22.60
2023-01-09T10:07:38.419Z,22.90
2023-01-09T10:10:15.268Z,23.20
2023-01-09T10:12:49.550Z,23.30
2023-01-09T10:15:19.515Z,23.40
2023-01-09T10:18:08.489Z,23.60
2023-01-09T10:20:57.709Z,23.60
2023-01-09T10:23:52.608Z,23.40
2023-01-09T10:26:26.035Z,23.70
2023-01-09T10:29:31.375Z,23.80
2023-01-09T10:32:18.735Z,23.70
2023-01-09T10:34:57.436Z,23.30
2023-01-09T10:37:30.178Z,23.50
2023-01-09T10:40:03.569Z,23.70
2023-01-09T10:42:36.628Z,23.60
2023-01-09T10:45:08.336Z,23.60
2023-01-09T10:47:40.328Z,23.90
2023-01-09T10:50:20.681Z,23.90
2023-01-09T10:52:51.173Z,24.20
2023-01-09T10:55:28.871Z,24.30
2023-01-09T10:58:02.492Z,24.10
2023-01-09T11:00:30.462Z,24.40
2023-01-09T11:02:58.385Z,24.50
2023-01-09T11:05:29.195Z,24.40
2023-01-09T11:08:02.771Z,24.30
2023-01-09T11:13:26.540Z,24.30
2023-01-09T11:16:09.169Z,24.20
2023-01-09T11:18:40.896Z,24.10
2023-01-09T11:21:31.574Z,24.30
2023-01-09T11:24:27.769Z,24.20
2023-01-09T11:27:29.538Z,24.50
2023-01-09T11:30:27.775Z,24.40
2023-01-09T11:32:57.093Z,23.30
2023-01-09T11:35:29.044Z,24.00
2023-01-09T11:38:13.473Z,24.00
2023-01-09T11:40:49.705Z,23.00
2023-01-09T11:43:30.666Z,23.00
2023-01-09T11:46:03.020Z,23.50
2023-01-09T11:48:36.764Z,23.80
2023-01-09T11:51:08.060Z,23.80
2023-01-09T11:53:49.780Z,23.90
2023-01-09T11:56:18.587Z,23.70
2023-01-09T11:58:46.673Z,23.80
2023-01-09T12:01:35.201Z,23.10
2023-01-09T12:04:20.466Z,22.60
2023-01-09T12:07:10.759Z,22.50
2023-01-09T12:09:46.302Z,22.50
2023-01-09T12:12:25.596Z,22.70
2023-01-09T12:15:09.862Z,23.10
2023-01-09T12:17:52.149Z,23.70
2023-01-09T12:20:34.017Z,23.00
2023-01-09T12:23:19.962Z,22.90
2023-01-09T12:25:57.788Z,23.00
2023-01-09T12:28:55.333Z,23.20
2023-01-09T12:31:39.839Z,23.80
2023-01-09T12:34:24.160Z,23.80
2023-01-09T12:36:59.527Z,24.20
2023-01-09T12:39:35.669Z,24.30
2023-01-09T12:42:14.053Z,24.00
2023-01-09T12:44:55.653Z,24.10
2023-01-09T12:47:45.613Z,23.80
2023-01-09T12:50:31.314Z,24.30
2023-01-09T12:53:10.079Z,24.50
2023-01-09T12:55:43.164Z,24.70
2023-01-09T12:58:31.895Z,24.80
2023-01-09T13:01:03.785Z,24.80
2023-01-09T13:03:37.879Z,24.70
2023-01-09T13:06:14.775Z,24.80
2023-01-09T13:08:45.670Z,24.90
2023-01-09T13:11:21.069Z,24.90
2023-01-09T13:13:55.755Z,25.00
2023-01-09T13:16:29.079Z,24.60
2023-01-09T13:19:00.175Z,23.60
2023-01-09T13:21:32.263Z,23.80
2023-01-09T13:24:06.715Z,24.10
2023-01-09T13:26:38.579Z,24.20
2023-01-09T13:29:14.205Z,24.00
2023-01-09T13:31:58.716Z,24.10
2023-01-09T13:34:30.162Z,24.30
2023-01-09T13:37:00.841Z,24.20
2023-01-09T13:39:32.215Z,24.40
2023-01-09T13:42:19.472Z,23.80
2023-01-09T13:44:49.927Z,23.70
2023-01-09T13:47:20.759Z,24.00
2023-01-09T13:50:22.246Z,23.70
2023-01-09T13:52:51.735Z,24.00
2023-01-09T13:55:26.485Z,24.00
2023-01-09T13:58:25.766Z,23.80
2023-01-09T14:01:00.633Z,23.90
2023-01-09T14:03:32.838Z,23.80
2023-01-09T14:06:18.474Z,23.50
2023-01-09T14:09:05.981Z,23.30
2023-01-09T14:11:34.162Z,23.60
2023-01-09T14:14:06.881Z,23.00
2023-01-09T14:16:38.003Z,23.20
2023-01-09T14:19:19.469Z,23.10
2023-01-09T14:21:51.874Z,23.10
2023-01-09T14:24:25.830Z,22.80
2023-01-09T14:26:57.081Z,23.20
2023-01-09T14:29:44.599Z,23.50
2023-01-09T14:32:46.890Z,23.70
2023-01-09T14:35:26.362Z,23.80
2023-01-09T14:38:05.186Z,22.90
2023-01-09T14:40:34.984Z,22.80
2023-01-09T14:43:13.784Z,22.60
2023-01-09T14:45:49.942Z,22.80
2023-01-09T14:48:19.079Z,22.70
2023-01-09T14:50:55.276Z,22.50
2023-01-09T14:53:27.095Z,22.60
2023-01-09T14:55:57.903Z,23.00
2023-01-09T14:58:27.639Z,22.50
2023-01-09T15:01:03.129Z,22.20
2023-01-09T15:03:35.841Z,21.40
2023-01-09T15:06:04.181Z,21.70
2023-01-09T15:08:33.073Z,21.40
2023-01-09T15:11:02.484Z,21.60
2023-01-09T15:13:36.901Z,21.80
2023-01-09T15:16:07.370Z,21.60
2023-01-09T15:18:44.848Z,20.90
2023-01-09T15:21:19.639Z,20.90
2023-01-09T15:23:47.799Z,20.80
2023-01-09T15:26:26.622Z,20.50
2023-01-09T15:29:01.180Z,20.80
2023-01-09T15:31:30.269Z,20.50
2023-01-09T15:33:58.463Z,20.40
2023-01-09T15:36:30.866Z,20.70
2023-01-09T15:39:00.350Z,20.90
2023-01-09T15:41:49.086Z,20.60
2023-01-09T15:44:20.415Z,21.10
2023-01-09T15:46:50.307Z,21.50
2023-01-09T15:49:19.798Z,21.40
2023-01-09T15:51:49.566Z,21.60
2023-01-09T15:54:19.303Z,21.60
2023-01-09T15:56:48.570Z,21.60
2023-01-09T15:59:27.963Z,21.90
2023-01-09T16:02:20.591Z,21.50
2023-01-09T16:04:49.761Z,21.40
2023-01-09T16:07:20.867Z,21.30
2023-01-09T16:09:52.604Z,21.30
2023-01-09T16:12:24.483Z,21.40
2023-01-09T16:14:55.120Z,21.40
2023-01-09T16:17:26.444Z,21.60
2023-01-09T16:19:58.288Z,21.60
2023-01-09T16:22:27.830Z,21.70
2023-01-09T16:24:57.725Z,22.00
2023-01-09T16:27:29.912Z,21.90
2023-01-09T16:29:59.534Z,21.90
2023-01-09T16:32:30.582Z,22.00
2023-01-09T16:35:00.791Z,22.50
2023-01-09T16:37:29.217Z,22.80
2023-01-09T16:40:27.268Z,22.90
2023-01-09T16:43:00.489Z,22.90
2023-01-09T16:45:31.364Z,22.40
2023-01-09T16:47:59.519Z,21.90
2023-01-09T16:50:27.637Z,21.40
2023-01-09T16:52:56.875Z,21.10
2023-01-09T16:55:25.822Z,20.80
2023-01-09T16:57:53.765Z,20.70
2023-01-09T17:00:26.215Z,20.50
2023-01-09T17:02:54.124Z,20.30
2023-01-09T17:05:22.319Z,20.60
2023-01-09T17:07:51.376Z,21.20
2023-01-09T17:10:22.783Z,21.30
2023-01-09T17:12:51.288Z,21.40
2023-01-09T17:15:19.406Z,21.40
2023-01-09T17:17:48.637Z,21.30
2023-01-09T17:20:18.909Z,21.00
2023-01-09T17:22:49.852Z,20.90
2023-01-09T17:25:35.931Z,21.50
2023-01-09T17:28:22.665Z,21.40
2023-01-09T17:30:50.866Z,21.80
2023-01-09T17:33:20.454Z,21.80
2023-01-09T17:35:48.532Z,22.40
2023-01-09T17:38:16.839Z,22.80
2023-01-09T17:40:45.585Z,23.00
2023-01-09T17:43:14.049Z,22.90
2023-01-09T17:45:42.922Z,22.60
2023-01-09T17:48:16.919Z,22.00
2023-01-09T17:50:47.242Z,21.30
2023-01-09T17:53:17.715Z,21.40
2023-01-09T17:55:45.960Z,21.20
2023-01-09T17:58:28.872Z,21.40
2023-01-09T18:00:57.592Z,21.90
2023-01-09T18:03:33.232Z,21.50
2023-01-09T18:06:03.345Z,21.00
2023-01-09T18:08:34.455Z,20.70
2023-01-09T18:11:05.783Z,20.20
2023-01-09T18:13:34.460Z,20.20
2023-01-09T18:16:02.493Z,19.90
2023-01-09T18:18:30.688Z,20.30
2023-01-09T18:20:58.760Z,20.40
2023-01-09T18:23:28.008Z,20.30
2023-01-09T18:25:55.936Z,20.50
2023-01-09T18:28:23.955Z,20.20
2023-01-09T18:30:54.626Z,20.30
2023-01-09T18:33:23.314Z,20.30
2023-01-09T18:35:54.128Z,20.40
2023-01-09T18:38:22.005Z,20.50
2023-01-09T18:40:51.260Z,20.20
2023-01-09T18:43:20.287Z,19.90
2023-01-09T18:45:48.219Z,19.60
2023-01-09T18:48:16.169Z,19.60
2023-01-09T18:50:45.573Z,19.80
2023-01-09T18:53:13.531Z,19.90
2023-01-09T18:55:41.529Z,20.30
2023-01-09T18:58:10.757Z,20.50
2023-01-09T19:00:41.214Z,20.70
2023-01-09T19:03:09.237Z,20.90
2023-01-09T19:05:37.218Z,21.40
2023-01-09T19:08:05.328Z,21.30
2023-01-09T19:10:34.167Z,21.50
2023-01-09T19:13:02.125Z,21.50
2023-01-09T19:15:31.919Z,21.40
2023-01-09T19:18:02.231Z,21.20
2023-01-09T19:20:30.122Z,21.40
2023-01-09T19:22:58.113Z,21.20
2023-01-09T19:25:28.928Z,21.80
2023-01-09T19:27:59.875Z,21.80
2023-01-09T19:30:27.900Z,22.40
2023-01-09T19:32:57.124Z,22.80
2023-01-09T19:35:27.474Z,22.60
2023-01-09T19:37:55.425Z,22.60
2023-01-09T19:40:23.315Z,22.50
2023-01-09T19:42:54.539Z,22.80
2023-01-09T19:45:22.884Z,22.90
2023-01-09T19:47:51.313Z,22.80
2023-01-09T19:50:21.901Z,22.20
2023-01-09T19:52:50.764Z,22.30
2023-01-09T19:55:18.723Z,21.90
2023-01-09T19:57:46.843Z,22.10
2023-01-09T20:00:16.420Z,22.40
2023-01-09T20:02:44.411Z,22.70
2023-01-09T20:05:12.365Z,22.50
2023-01-09T20:07:43.840Z,22.00
2023-01-09T20:10:12.429Z,22.10
2023-01-09T20:12:40.943Z,21.40
2023-01-09T20:15:14.682Z,21.00
2023-01-09T20:17:43.108Z,20.60
2023-01-09T20:20:12.000Z,20.10
2023-01-09T20:22:41.485Z,20.10
2023-01-09T20:25:11.022Z,20.00
2023-01-09T20:27:38.992Z,20.40
2023-01-09T20:30:08.423Z,20.90
2023-01-09T20:32:37.019Z,21.10
2023-01-09T20:35:05.169Z,21.70
2023-01-09T20:37:33.079Z,22.10
2023-01-09T20:40:02.340Z,22.30
2023-01-09T20:42:30.269Z,22.70
2023-01-09T20:44:58.565Z,22.50
2023-01-09T20:47:26.637Z,22.20
2023-01-09T20:49:54.616Z,22.50
2023-01-09T20:52:22.858Z,23.00
2023-01-09T20:54:50.829Z,23.30
2023-01-09T20:57:20.119Z,23.40
2023-01-09T20:59:48.331Z,23.50
2023-01-09T21:02:16.311Z,23.50
2023-01-09T21:04:44.236Z,23.50
2023-01-09T21:07:12.228Z,23.50
2023-01-09T21:09:40.167Z,23.00
2023-01-09T21:12:24.694Z,23.30
2023-01-09T21:14:54.552Z,22.90
2023-01-09T21:17:24.112Z,22.70
2023-01-09T21:19:52.024Z,22.80
2023-01-09T21:22:20.245Z,22.60
2023-01-09T21:24:50.333Z,22.80
2023-01-09T21:27:18.489Z,22.90
2023-01-09T21:29:46.614Z,22.80
2023-01-09T21:32:15.978Z,22.90
2023-01-09T21:34:43.922Z,22.90
2023-01-09T21:37:11.901Z,23.00
2023-01-09T21:39:40.014Z,23.00
2023-01-09T21:42:25.387Z,22.90
2023-01-09T21:45:11.269Z,22.80
2023-01-09T21:47:40.515Z,22.60
2023-01-09T21:50:09.615Z,22.90
2023-01-09T21:52:37.618Z,23.00
2023-01-09T21:55:06.395Z,23.10
2023-01-09T21:57:34.355Z,23.10
2023-01-09T22:00:02.315Z,22.90
2023-01-09T22:02:41.099Z,22.90
2023-01-09T22:05:11.627Z,22.20
2023-01-09T22:07:41.232Z,22.20
2023-01-09T22:10:10.561Z,22.40
2023-01-09T22:12:38.510Z,22.20
2023-01-09T22:15:09.407Z,22.30
2023-01-09T22:17:37.324Z,22.40
2023-01-09T22:20:07.719Z,22.70
2023-01-09T22:22:35.734Z,22.80
2023-01-09T22:25:04.178Z,22.80
2023-01-09T22:27:32.099Z,22.80
2023-01-09T22:30:00.149Z,22.90
2023-01-09T22:32:28.079Z,23.00
2023-01-09T22:34:56.008Z,22.40
2023-01-09T22:37:25.275Z,21.90
2023-01-09T22:39:53.239Z,22.50
2023-01-09T22:42:21.153Z,22.80
2023-01-09T22:44:49.049Z,22.90
2023-01-09T22:47:16.947Z,23.10
2023-01-09T22:49:52.882Z,23.20
2023-01-09T22:52:21.464Z,23.30
2023-01-09T22:54:50.819Z,23.10
2023-01-09T22:57:18.763Z,23.30
2023-01-09T22:59:46.706Z,23.20
2023-01-09T23:02:14.675Z,23.30
2023-01-09T23:04:42.616Z,23.30
2023-01-09T23:07:10.534Z,23.30
2023-01-09T23:09:38.804Z,22.70
2023-01-09T23:12:08.630Z,22.90
2023-01-09T23:14:38.293Z,23.00
2023-01-09T23:17:07.946Z,22.70
2023-01-09T23:19:36.121Z,23.00
2023-01-09T23:22:06.173Z,23.00
2023-01-09T23:24:34.375Z,22.80
2023-01-09T23:27:04.339Z,22.80
2023-01-09T23:29:35.292Z,22.80
2023-01-09T23:32:07.111Z,22.80
2023-01-09T23:34:35.140Z,22.90
2023-01-09T23:37:08.849Z,22.70
2023-01-09T23:39:36.888Z,22.90
2023-01-09T23:42:22.829Z,22.90
2023-01-09T23:44:52.133Z,22.40
2023-01-09T23:47:20.050Z,22.90
2023-01-09T23:49:49.930Z,22.90
2023-01-09T23:52:18.180Z,22.90
2023-01-09T23:54:46.097Z,22.90
2023-01-09T23:57:14.058Z,22.90
2023-01-09T23:59:44.293Z,22.90
